sensor_id;sensor_type;location;lat;lon;timestamp;P1;durP1;ratioP1;P2;durP2;ratioP2
33926;SDS011;20485;50.992;5.550;2023-05-10T00:01:04;33.28;;;16.25;;
33926;SDS011;20485;50.992;5.550;2023-05-10T00:03:29;61.92;;;17.55;;
33926;SDS011;20485;50.992;5.550;2023-05-10T00:05:55;78.57;;;17.73;;
33926;SDS011;20485;50.992;5.550;2023-05-10T00:08:21;33.00;;;15.90;;
33926;SDS011;20485;50.992;5.550;2023-05-10T00:10:47;31.58;;;15.65;;
33926;SDS011;20485;50.992;5.550;2023-05-10T00:13:13;35.45;;;16.73;;
33926;SDS011;20485;50.992;5.550;2023-05-10T00:15:39;32.83;;;18.15;;
33926;SDS011;20485;50.992;5.550;2023-05-10T00:18:04;37.80;;;16.02;;
33926;SDS011;20485;50.992;5.550;2023-05-10T00:20:30;50.60;;;17.00;;
33926;SDS011;20485;50.992;5.550;2023-05-10T00:22:56;35.75;;;16.70;;
33926;SDS011;20485;50.992;5.550;2023-05-10T00:25:21;34.08;;;16.52;;
33926;SDS011;20485;50.992;5.550;2023-05-10T00:27:47;32.90;;;17.40;;
33926;SDS011;20485;50.992;5.550;2023-05-10T00:30:13;36.72;;;18.30;;
33926;SDS011;20485;50.992;5.550;2023-05-10T00:32:39;30.73;;;17.33;;
33926;SDS011;20485;50.992;5.550;2023-05-10T00:35:04;30.88;;;17.33;;
33926;SDS011;20485;50.992;5.550;2023-05-10T00:37:30;34.50;;;15.75;;
33926;SDS011;20485;50.992;5.550;2023-05-10T00:39:57;31.73;;;15.90;;
33926;SDS011;20485;50.992;5.550;2023-05-10T00:42:23;29.85;;;16.00;;
33926;SDS011;20485;50.992;5.550;2023-05-10T00:44:49;29.48;;;16.38;;
33926;SDS011;20485;50.992;5.550;2023-05-10T00:47:15;31.30;;;16.55;;
33926;SDS011;20485;50.992;5.550;2023-05-10T00:49:41;24.98;;;15.77;;
33926;SDS011;20485;50.992;5.550;2023-05-10T00:52:08;55.33;;;16.67;;
33926;SDS011;20485;50.992;5.550;2023-05-10T00:54:34;33.20;;;17.40;;
33926;SDS011;20485;50.992;5.550;2023-05-10T00:57:00;69.30;;;17.83;;
33926;SDS011;20485;50.992;5.550;2023-05-10T00:59:26;43.83;;;15.60;;
33926;SDS011;20485;50.992;5.550;2023-05-10T01:01:52;25.02;;;15.32;;
33926;SDS011;20485;50.992;5.550;2023-05-10T01:04:18;27.38;;;14.77;;
33926;SDS011;20485;50.992;5.550;2023-05-10T01:06:46;29.10;;;15.07;;
33926;SDS011;20485;50.992;5.550;2023-05-10T01:09:12;36.70;;;15.70;;
33926;SDS011;20485;50.992;5.550;2023-05-10T01:11:38;38.42;;;15.63;;
33926;SDS011;20485;50.992;5.550;2023-05-10T01:14:05;27.60;;;14.82;;
33926;SDS011;20485;50.992;5.550;2023-05-10T01:16:32;25.63;;;14.02;;
33926;SDS011;20485;50.992;5.550;2023-05-10T01:19:02;31.00;;;15.48;;
33926;SDS011;20485;50.992;5.550;2023-05-10T01:38:04;22.33;;;12.05;;
33926;SDS011;20485;50.992;5.550;2023-05-10T01:43:11;27.65;;;13.82;;
33926;SDS011;20485;50.992;5.550;2023-05-10T01:46:01;29.02;;;12.73;;
33926;SDS011;20485;50.992;5.550;2023-05-10T01:48:35;27.40;;;13.93;;
33926;SDS011;20485;50.992;5.550;2023-05-10T01:51:05;20.27;;;12.70;;
33926;SDS011;20485;50.992;5.550;2023-05-10T01:53:31;28.88;;;14.55;;
33926;SDS011;20485;50.992;5.550;2023-05-10T01:56:00;31.67;;;13.23;;
33926;SDS011;20485;50.992;5.550;2023-05-10T01:58:31;24.38;;;12.45;;
33926;SDS011;20485;50.992;5.550;2023-05-10T02:01:00;24.20;;;13.40;;
33926;SDS011;20485;50.992;5.550;2023-05-10T02:03:28;25.65;;;12.70;;
33926;SDS011;20485;50.992;5.550;2023-05-10T02:05:57;26.58;;;12.70;;
33926;SDS011;20485;50.992;5.550;2023-05-10T02:08:24;33.65;;;12.25;;
33926;SDS011;20485;50.992;5.550;2023-05-10T02:10:51;26.77;;;12.40;;
33926;SDS011;20485;50.992;5.550;2023-05-10T02:13:20;30.88;;;12.70;;
33926;SDS011;20485;50.992;5.550;2023-05-10T02:15:49;35.97;;;12.48;;
33926;SDS011;20485;50.992;5.550;2023-05-10T02:18:17;30.42;;;13.20;;
33926;SDS011;20485;50.992;5.550;2023-05-10T02:20:44;30.92;;;13.90;;
33926;SDS011;20485;50.992;5.550;2023-05-10T02:23:11;24.58;;;13.50;;
33926;SDS011;20485;50.992;5.550;2023-05-10T02:25:38;47.75;;;13.50;;
33926;SDS011;20485;50.992;5.550;2023-05-10T02:28:06;23.80;;;12.93;;
33926;SDS011;20485;50.992;5.550;2023-05-10T02:30:33;28.30;;;13.00;;
33926;SDS011;20485;50.992;5.550;2023-05-10T02:32:59;24.65;;;13.55;;
33926;SDS011;20485;50.992;5.550;2023-05-10T02:35:27;26.65;;;12.98;;
33926;SDS011;20485;50.992;5.550;2023-05-10T02:37:53;31.40;;;13.82;;
33926;SDS011;20485;50.992;5.550;2023-05-10T02:40:20;28.73;;;13.32;;
33926;SDS011;20485;50.992;5.550;2023-05-10T02:42:47;27.10;;;13.45;;
33926;SDS011;20485;50.992;5.550;2023-05-10T02:45:17;32.85;;;14.43;;
33926;SDS011;20485;50.992;5.550;2023-05-10T02:47:45;28.70;;;12.88;;
33926;SDS011;20485;50.992;5.550;2023-05-10T02:50:11;26.33;;;12.85;;
33926;SDS011;20485;50.992;5.550;2023-05-10T02:52:40;32.25;;;13.25;;
33926;SDS011;20485;50.992;5.550;2023-05-10T02:57:42;28.98;;;13.15;;
33926;SDS011;20485;50.992;5.550;2023-05-10T03:00:13;28.98;;;14.10;;
33926;SDS011;20485;50.992;5.550;2023-05-10T03:02:39;38.33;;;15.02;;
33926;SDS011;20485;50.992;5.550;2023-05-10T03:05:06;41.83;;;15.95;;
33926;SDS011;20485;50.992;5.550;2023-05-10T03:07:32;31.75;;;15.15;;
33926;SDS011;20485;50.992;5.550;2023-05-10T03:09:58;40.17;;;16.10;;
33926;SDS011;20485;50.992;5.550;2023-05-10T03:20:25;36.70;;;15.50;;
33926;SDS011;20485;50.992;5.550;2023-05-10T03:22:55;41.95;;;16.95;;
33926;SDS011;20485;50.992;5.550;2023-05-10T03:25:28;50.40;;;16.75;;
33926;SDS011;20485;50.992;5.550;2023-05-10T03:27:56;47.20;;;17.20;;
33926;SDS011;20485;50.992;5.550;2023-05-10T03:30:22;46.42;;;15.30;;
33926;SDS011;20485;50.992;5.550;2023-05-10T03:32:49;40.80;;;16.42;;
33926;SDS011;20485;50.992;5.550;2023-05-10T03:35:15;41.95;;;16.42;;
33926;SDS011;20485;50.992;5.550;2023-05-10T03:37:40;48.50;;;17.20;;
33926;SDS011;20485;50.992;5.550;2023-05-10T03:40:06;41.13;;;16.45;;
33926;SDS011;20485;50.992;5.550;2023-05-10T03:42:32;48.58;;;17.52;;
33926;SDS011;20485;50.992;5.550;2023-05-10T03:44:58;39.30;;;16.48;;
33926;SDS011;20485;50.992;5.550;2023-05-10T03:47:23;55.60;;;16.83;;
33926;SDS011;20485;50.992;5.550;2023-05-10T03:49:49;37.45;;;17.40;;
33926;SDS011;20485;50.992;5.550;2023-05-10T03:52:15;52.05;;;19.60;;
33926;SDS011;20485;50.992;5.550;2023-05-10T03:54:40;38.45;;;18.20;;
33926;SDS011;20485;50.992;5.550;2023-05-10T03:57:06;45.30;;;16.45;;
33926;SDS011;20485;50.992;5.550;2023-05-10T03:59:32;37.90;;;17.13;;
33926;SDS011;20485;50.992;5.550;2023-05-10T04:01:57;36.92;;;16.75;;
33926;SDS011;20485;50.992;5.550;2023-05-10T04:04:23;43.53;;;17.20;;
33926;SDS011;20485;50.992;5.550;2023-05-10T04:06:49;38.22;;;16.00;;
33926;SDS011;20485;50.992;5.550;2023-05-10T04:09:15;37.80;;;17.20;;
33926;SDS011;20485;50.992;5.550;2023-05-10T04:11:42;39.65;;;17.70;;
33926;SDS011;20485;50.992;5.550;2023-05-10T04:14:09;49.35;;;17.40;;
33926;SDS011;20485;50.992;5.550;2023-05-10T04:16:35;41.05;;;17.45;;
33926;SDS011;20485;50.992;5.550;2023-05-10T04:19:00;34.40;;;16.67;;
33926;SDS011;20485;50.992;5.550;2023-05-10T04:21:26;36.38;;;16.15;;
33926;SDS011;20485;50.992;5.550;2023-05-10T04:23:52;34.72;;;16.75;;
33926;SDS011;20485;50.992;5.550;2023-05-10T04:26:17;47.17;;;17.30;;
33926;SDS011;20485;50.992;5.550;2023-05-10T04:28:44;40.72;;;17.35;;
33926;SDS011;20485;50.992;5.550;2023-05-10T04:31:10;40.72;;;18.23;;
33926;SDS011;20485;50.992;5.550;2023-05-10T04:33:36;31.70;;;17.05;;
33926;SDS011;20485;50.992;5.550;2023-05-10T04:36:02;46.17;;;17.67;;
33926;SDS011;20485;50.992;5.550;2023-05-10T04:38:28;44.00;;;17.25;;
33926;SDS011;20485;50.992;5.550;2023-05-10T04:40:55;39.88;;;18.02;;
33926;SDS011;20485;50.992;5.550;2023-05-10T04:43:32;39.10;;;17.00;;
33926;SDS011;20485;50.992;5.550;2023-05-10T04:45:58;33.08;;;17.65;;
33926;SDS011;20485;50.992;5.550;2023-05-10T04:48:23;42.30;;;16.92;;
33926;SDS011;20485;50.992;5.550;2023-05-10T04:50:49;43.67;;;18.90;;
33926;SDS011;20485;50.992;5.550;2023-05-10T04:53:15;39.50;;;18.42;;
33926;SDS011;20485;50.992;5.550;2023-05-10T04:55:40;33.25;;;17.05;;
33926;SDS011;20485;50.992;5.550;2023-05-10T04:58:06;39.88;;;17.08;;
33926;SDS011;20485;50.992;5.550;2023-05-10T05:00:32;34.38;;;17.25;;
33926;SDS011;20485;50.992;5.550;2023-05-10T05:02:59;32.97;;;15.50;;
33926;SDS011;20485;50.992;5.550;2023-05-10T05:05:24;40.40;;;17.67;;
33926;SDS011;20485;50.992;5.550;2023-05-10T05:07:50;32.08;;;15.88;;
33926;SDS011;20485;50.992;5.550;2023-05-10T05:10:16;38.67;;;15.48;;
33926;SDS011;20485;50.992;5.550;2023-05-10T05:12:41;27.85;;;14.35;;
33926;SDS011;20485;50.992;5.550;2023-05-10T05:15:07;33.60;;;15.20;;
33926;SDS011;20485;50.992;5.550;2023-05-10T05:17:34;22.05;;;12.23;;
33926;SDS011;20485;50.992;5.550;2023-05-10T05:20:00;25.38;;;12.55;;
33926;SDS011;20485;50.992;5.550;2023-05-10T05:22:26;24.55;;;12.70;;
33926;SDS011;20485;50.992;5.550;2023-05-10T05:24:53;27.95;;;13.60;;
33926;SDS011;20485;50.992;5.550;2023-05-10T05:27:19;26.33;;;12.43;;
33926;SDS011;20485;50.992;5.550;2023-05-10T05:29:52;19.50;;;12.45;;
33926;SDS011;20485;50.992;5.550;2023-05-10T05:32:18;26.25;;;14.65;;
33926;SDS011;20485;50.992;5.550;2023-05-10T05:34:44;24.60;;;13.63;;
33926;SDS011;20485;50.992;5.550;2023-05-10T05:37:14;28.48;;;14.15;;
33926;SDS011;20485;50.992;5.550;2023-05-10T05:39:41;32.47;;;14.07;;
33926;SDS011;20485;50.992;5.550;2023-05-10T05:42:07;28.27;;;14.68;;
33926;SDS011;20485;50.992;5.550;2023-05-10T05:44:33;27.10;;;14.52;;
33926;SDS011;20485;50.992;5.550;2023-05-10T05:46:59;33.97;;;15.85;;
33926;SDS011;20485;50.992;5.550;2023-05-10T05:49:25;32.55;;;16.15;;
33926;SDS011;20485;50.992;5.550;2023-05-10T05:51:51;32.33;;;17.58;;
33926;SDS011;20485;50.992;5.550;2023-05-10T05:54:16;38.80;;;19.20;;
33926;SDS011;20485;50.992;5.550;2023-05-10T05:56:42;48.17;;;20.25;;
33926;SDS011;20485;50.992;5.550;2023-05-10T05:59:09;52.10;;;22.85;;
33926;SDS011;20485;50.992;5.550;2023-05-10T06:01:37;55.97;;;24.58;;
33926;SDS011;20485;50.992;5.550;2023-05-10T06:04:03;61.30;;;26.85;;
33926;SDS011;20485;50.992;5.550;2023-05-10T06:06:29;62.65;;;27.67;;
33926;SDS011;20485;50.992;5.550;2023-05-10T06:08:54;63.63;;;26.10;;
33926;SDS011;20485;50.992;5.550;2023-05-10T06:11:23;67.60;;;28.20;;
33926;SDS011;20485;50.992;5.550;2023-05-10T06:13:50;68.13;;;28.67;;
33926;SDS011;20485;50.992;5.550;2023-05-10T06:16:16;64.40;;;26.55;;
33926;SDS011;20485;50.992;5.550;2023-05-10T06:18:42;63.60;;;27.67;;
33926;SDS011;20485;50.992;5.550;2023-05-10T06:21:08;71.50;;;26.73;;
33926;SDS011;20485;50.992;5.550;2023-05-10T06:23:34;70.22;;;27.70;;
33926;SDS011;20485;50.992;5.550;2023-05-10T06:26:00;75.90;;;29.70;;
33926;SDS011;20485;50.992;5.550;2023-05-10T06:28:26;64.50;;;28.13;;
33926;SDS011;20485;50.992;5.550;2023-05-10T06:30:51;85.03;;;27.88;;
33926;SDS011;20485;50.992;5.550;2023-05-10T06:33:17;79.72;;;29.40;;
33926;SDS011;20485;50.992;5.550;2023-05-10T06:35:43;79.05;;;28.48;;
33926;SDS011;20485;50.992;5.550;2023-05-10T06:38:08;83.28;;;27.80;;
33926;SDS011;20485;50.992;5.550;2023-05-10T06:40:34;74.97;;;30.42;;
33926;SDS011;20485;50.992;5.550;2023-05-10T06:43:01;79.75;;;28.55;;
33926;SDS011;20485;50.992;5.550;2023-05-10T06:45:26;79.38;;;30.10;;
33926;SDS011;20485;50.992;5.550;2023-05-10T06:47:52;73.85;;;29.27;;
33926;SDS011;20485;50.992;5.550;2023-05-10T06:50:18;80.07;;;33.28;;
33926;SDS011;20485;50.992;5.550;2023-05-10T06:52:43;82.20;;;32.92;;
33926;SDS011;20485;50.992;5.550;2023-05-10T06:55:09;76.65;;;31.50;;
33926;SDS011;20485;50.992;5.550;2023-05-10T06:57:35;83.78;;;31.40;;
33926;SDS011;20485;50.992;5.550;2023-05-10T07:00:01;72.30;;;30.42;;
33926;SDS011;20485;50.992;5.550;2023-05-10T07:02:29;74.72;;;29.08;;
33926;SDS011;20485;50.992;5.550;2023-05-10T07:04:54;64.00;;;27.05;;
33926;SDS011;20485;50.992;5.550;2023-05-10T07:07:20;66.68;;;27.90;;
33926;SDS011;20485;50.992;5.550;2023-05-10T07:09:46;73.85;;;29.05;;
33926;SDS011;20485;50.992;5.550;2023-05-10T07:12:11;62.78;;;26.80;;
33926;SDS011;20485;50.992;5.550;2023-05-10T07:14:37;55.22;;;25.38;;
33926;SDS011;20485;50.992;5.550;2023-05-10T07:17:03;58.92;;;25.50;;
33926;SDS011;20485;50.992;5.550;2023-05-10T07:19:28;63.25;;;24.83;;
33926;SDS011;20485;50.992;5.550;2023-05-10T07:21:54;62.30;;;25.17;;
33926;SDS011;20485;50.992;5.550;2023-05-10T07:24:20;59.92;;;25.27;;
33926;SDS011;20485;50.992;5.550;2023-05-10T07:26:46;67.78;;;25.48;;
33926;SDS011;20485;50.992;5.550;2023-05-10T07:29:12;57.47;;;24.67;;
33926;SDS011;20485;50.992;5.550;2023-05-10T07:31:37;56.17;;;24.15;;
33926;SDS011;20485;50.992;5.550;2023-05-10T07:34:03;70.90;;;24.63;;
33926;SDS011;20485;50.992;5.550;2023-05-10T07:36:28;60.00;;;24.17;;
33926;SDS011;20485;50.992;5.550;2023-05-10T07:38:54;59.38;;;25.92;;
33926;SDS011;20485;50.992;5.550;2023-05-10T07:41:21;65.93;;;24.70;;
33926;SDS011;20485;50.992;5.550;2023-05-10T07:43:47;61.92;;;26.55;;
33926;SDS011;20485;50.992;5.550;2023-05-10T07:46:13;60.78;;;23.15;;
33926;SDS011;20485;50.992;5.550;2023-05-10T07:48:38;63.80;;;25.08;;
33926;SDS011;20485;50.992;5.550;2023-05-10T07:51:04;61.97;;;25.35;;
33926;SDS011;20485;50.992;5.550;2023-05-10T07:53:31;62.22;;;24.73;;
33926;SDS011;20485;50.992;5.550;2023-05-10T07:55:57;89.63;;;24.83;;
33926;SDS011;20485;50.992;5.550;2023-05-10T07:58:23;65.75;;;25.38;;
33926;SDS011;20485;50.992;5.550;2023-05-10T08:00:50;60.72;;;25.17;;
33926;SDS011;20485;50.992;5.550;2023-05-10T08:03:15;57.67;;;24.48;;
33926;SDS011;20485;50.992;5.550;2023-05-10T08:05:41;57.90;;;23.55;;
33926;SDS011;20485;50.992;5.550;2023-05-10T08:08:07;60.20;;;24.00;;
33926;SDS011;20485;50.992;5.550;2023-05-10T08:10:32;62.38;;;25.38;;
33926;SDS011;20485;50.992;5.550;2023-05-10T08:12:58;63.20;;;24.00;;
33926;SDS011;20485;50.992;5.550;2023-05-10T08:15:24;63.83;;;24.98;;
33926;SDS011;20485;50.992;5.550;2023-05-10T08:17:51;53.10;;;23.63;;
33926;SDS011;20485;50.992;5.550;2023-05-10T08:20:17;49.58;;;23.02;;
33926;SDS011;20485;50.992;5.550;2023-05-10T08:22:44;55.78;;;22.60;;
33926;SDS011;20485;50.992;5.550;2023-05-10T08:25:10;50.58;;;22.13;;
33926;SDS011;20485;50.992;5.550;2023-05-10T08:27:36;43.17;;;22.10;;
33926;SDS011;20485;50.992;5.550;2023-05-10T08:30:02;41.42;;;21.40;;
33926;SDS011;20485;50.992;5.550;2023-05-10T08:32:28;46.92;;;22.83;;
33926;SDS011;20485;50.992;5.550;2023-05-10T08:34:53;45.38;;;20.40;;
33926;SDS011;20485;50.992;5.550;2023-05-10T08:37:19;40.80;;;21.45;;
33926;SDS011;20485;50.992;5.550;2023-05-10T08:39:45;43.47;;;21.65;;
33926;SDS011;20485;50.992;5.550;2023-05-10T08:42:12;47.67;;;20.98;;
33926;SDS011;20485;50.992;5.550;2023-05-10T08:44:44;45.65;;;21.83;;
33926;SDS011;20485;50.992;5.550;2023-05-10T08:47:11;36.38;;;18.33;;
33926;SDS011;20485;50.992;5.550;2023-05-10T08:49:40;32.83;;;16.50;;
33926;SDS011;20485;50.992;5.550;2023-05-10T08:52:07;32.25;;;16.50;;
33926;SDS011;20485;50.992;5.550;2023-05-10T08:54:33;20.17;;;12.50;;
33926;SDS011;20485;50.992;5.550;2023-05-10T08:56:59;11.65;;;6.68;;
33926;SDS011;20485;50.992;5.550;2023-05-10T08:59:25;12.63;;;6.78;;
33926;SDS011;20485;50.992;5.550;2023-05-10T09:01:50;10.80;;;6.35;;
33926;SDS011;20485;50.992;5.550;2023-05-10T09:04:18;13.88;;;5.50;;
33926;SDS011;20485;50.992;5.550;2023-05-10T09:06:45;8.68;;;5.10;;
33926;SDS011;20485;50.992;5.550;2023-05-10T09:09:11;9.00;;;5.07;;
33926;SDS011;20485;50.992;5.550;2023-05-10T09:11:37;12.07;;;5.65;;
33926;SDS011;20485;50.992;5.550;2023-05-10T09:14:03;10.25;;;5.80;;
33926;SDS011;20485;50.992;5.550;2023-05-10T09:16:29;9.82;;;5.20;;
33926;SDS011;20485;50.992;5.550;2023-05-10T09:18:55;9.73;;;4.70;;
33926;SDS011;20485;50.992;5.550;2023-05-10T09:21:20;8.57;;;4.68;;
33926;SDS011;20485;50.992;5.550;2023-05-10T09:23:48;10.93;;;5.47;;
33926;SDS011;20485;50.992;5.550;2023-05-10T09:26:15;9.77;;;5.32;;
33926;SDS011;20485;50.992;5.550;2023-05-10T09:31:15;8.13;;;5.70;;
33926;SDS011;20485;50.992;5.550;2023-05-10T09:33:44;11.73;;;5.85;;
33926;SDS011;20485;50.992;5.550;2023-05-10T09:36:14;12.65;;;5.57;;
33926;SDS011;20485;50.992;5.550;2023-05-10T09:38:47;13.15;;;5.13;;
33926;SDS011;20485;50.992;5.550;2023-05-10T09:43:50;9.45;;;5.50;;
33926;SDS011;20485;50.992;5.550;2023-05-10T09:46:20;15.02;;;5.60;;
33926;SDS011;20485;50.992;5.550;2023-05-10T09:48:46;11.52;;;7.05;;
33926;SDS011;20485;50.992;5.550;2023-05-10T09:51:22;9.88;;;5.75;;
33926;SDS011;20485;50.992;5.550;2023-05-10T09:56:38;13.88;;;5.80;;
33926;SDS011;20485;50.992;5.550;2023-05-10T09:59:06;12.55;;;6.22;;
33926;SDS011;20485;50.992;5.550;2023-05-10T10:01:35;15.43;;;7.03;;
33926;SDS011;20485;50.992;5.550;2023-05-10T10:04:03;8.60;;;5.60;;
33926;SDS011;20485;50.992;5.550;2023-05-10T10:06:34;13.10;;;5.93;;
33926;SDS011;20485;50.992;5.550;2023-05-10T10:09:03;12.80;;;6.40;;
33926;SDS011;20485;50.992;5.550;2023-05-10T10:11:30;11.65;;;7.55;;
33926;SDS011;20485;50.992;5.550;2023-05-10T10:13:56;29.25;;;7.03;;
33926;SDS011;20485;50.992;5.550;2023-05-10T10:16:22;10.15;;;7.00;;
33926;SDS011;20485;50.992;5.550;2023-05-10T10:18:48;11.88;;;7.20;;
33926;SDS011;20485;50.992;5.550;2023-05-10T10:21:15;12.77;;;7.07;;
33926;SDS011;20485;50.992;5.550;2023-05-10T10:23:41;16.83;;;6.38;;
33926;SDS011;20485;50.992;5.550;2023-05-10T10:26:08;14.55;;;6.68;;
33926;SDS011;20485;50.992;5.550;2023-05-10T10:28:40;11.73;;;6.55;;
33926;SDS011;20485;50.992;5.550;2023-05-10T10:31:36;9.48;;;6.53;;
33926;SDS011;20485;50.992;5.550;2023-05-10T10:34:10;10.07;;;7.18;;
33926;SDS011;20485;50.992;5.550;2023-05-10T10:36:46;12.35;;;7.47;;
33926;SDS011;20485;50.992;5.550;2023-05-10T10:39:12;11.85;;;7.25;;
33926;SDS011;20485;50.992;5.550;2023-05-10T10:41:40;14.82;;;7.90;;
33926;SDS011;20485;50.992;5.550;2023-05-10T10:44:24;14.27;;;8.05;;
33926;SDS011;20485;50.992;5.550;2023-05-10T10:46:58;16.70;;;9.07;;
33926;SDS011;20485;50.992;5.550;2023-05-10T10:57:28;17.77;;;10.50;;
33926;SDS011;20485;50.992;5.550;2023-05-10T11:02:50;17.02;;;10.88;;
33926;SDS011;20485;50.992;5.550;2023-05-10T11:05:23;18.95;;;10.65;;
33926;SDS011;20485;50.992;5.550;2023-05-10T11:07:53;16.05;;;9.70;;
33926;SDS011;20485;50.992;5.550;2023-05-10T11:10:24;18.00;;;10.30;;
33926;SDS011;20485;50.992;5.550;2023-05-10T11:13:01;15.70;;;10.13;;
33926;SDS011;20485;50.992;5.550;2023-05-10T11:15:38;18.48;;;10.27;;
33926;SDS011;20485;50.992;5.550;2023-05-10T11:18:24;17.50;;;10.48;;
33926;SDS011;20485;50.992;5.550;2023-05-10T11:20:58;18.05;;;11.05;;
33926;SDS011;20485;50.992;5.550;2023-05-10T11:26:11;18.40;;;10.00;;
33926;SDS011;20485;50.992;5.550;2023-05-10T11:28:47;15.30;;;8.80;;
33926;SDS011;20485;50.992;5.550;2023-05-10T11:31:13;19.38;;;9.48;;
33926;SDS011;20485;50.992;5.550;2023-05-10T11:33:43;15.90;;;9.48;;
33926;SDS011;20485;50.992;5.550;2023-05-10T11:36:17;16.90;;;8.70;;
33926;SDS011;20485;50.992;5.550;2023-05-10T11:38:44;17.40;;;9.35;;
33926;SDS011;20485;50.992;5.550;2023-05-10T11:41:11;15.15;;;8.23;;
33926;SDS011;20485;50.992;5.550;2023-05-10T11:43:40;12.73;;;7.25;;
33926;SDS011;20485;50.992;5.550;2023-05-10T11:46:07;12.82;;;8.05;;
33926;SDS011;20485;50.992;5.550;2023-05-10T11:48:35;12.88;;;7.20;;
33926;SDS011;20485;50.992;5.550;2023-05-10T11:51:02;11.07;;;7.38;;
33926;SDS011;20485;50.992;5.550;2023-05-10T11:53:29;12.70;;;7.72;;
33926;SDS011;20485;50.992;5.550;2023-05-10T11:56:02;13.15;;;7.78;;
33926;SDS011;20485;50.992;5.550;2023-05-10T11:58:37;14.27;;;7.43;;
33926;SDS011;20485;50.992;5.550;2023-05-10T12:01:04;12.27;;;6.85;;
33926;SDS011;20485;50.992;5.550;2023-05-10T12:03:30;11.27;;;6.72;;
33926;SDS011;20485;50.992;5.550;2023-05-10T12:05:57;10.23;;;6.95;;
33926;SDS011;20485;50.992;5.550;2023-05-10T12:08:24;10.98;;;7.10;;
33926;SDS011;20485;50.992;5.550;2023-05-10T12:10:51;11.77;;;7.00;;
33926;SDS011;20485;50.992;5.550;2023-05-10T12:13:18;14.32;;;7.32;;
33926;SDS011;20485;50.992;5.550;2023-05-10T12:15:45;14.05;;;7.50;;
33926;SDS011;20485;50.992;5.550;2023-05-10T12:18:12;10.60;;;6.55;;
33926;SDS011;20485;50.992;5.550;2023-05-10T12:20:39;9.90;;;6.35;;
33926;SDS011;20485;50.992;5.550;2023-05-10T12:23:07;13.30;;;6.82;;
33926;SDS011;20485;50.992;5.550;2023-05-10T12:25:35;13.93;;;6.82;;
33926;SDS011;20485;50.992;5.550;2023-05-10T12:28:03;12.85;;;6.50;;
33926;SDS011;20485;50.992;5.550;2023-05-10T12:30:31;11.55;;;6.80;;
33926;SDS011;20485;50.992;5.550;2023-05-10T12:33:01;17.23;;;6.70;;
33926;SDS011;20485;50.992;5.550;2023-05-10T12:35:31;10.52;;;5.88;;
33926;SDS011;20485;50.992;5.550;2023-05-10T12:37:56;13.88;;;6.50;;
33926;SDS011;20485;50.992;5.550;2023-05-10T12:40:22;9.55;;;5.63;;
33926;SDS011;20485;50.992;5.550;2023-05-10T12:42:48;15.02;;;6.43;;
33926;SDS011;20485;50.992;5.550;2023-05-10T12:45:14;10.45;;;5.20;;
33926;SDS011;20485;50.992;5.550;2023-05-10T12:47:39;10.70;;;5.68;;
33926;SDS011;20485;50.992;5.550;2023-05-10T12:50:05;14.38;;;5.82;;
33926;SDS011;20485;50.992;5.550;2023-05-10T12:52:31;11.98;;;5.55;;
33926;SDS011;20485;50.992;5.550;2023-05-10T12:54:58;10.80;;;4.75;;
33926;SDS011;20485;50.992;5.550;2023-05-10T12:57:24;9.45;;;5.38;;
33926;SDS011;20485;50.992;5.550;2023-05-10T12:59:50;10.07;;;5.43;;
33926;SDS011;20485;50.992;5.550;2023-05-10T13:02:16;10.98;;;5.05;;
33926;SDS011;20485;50.992;5.550;2023-05-10T13:04:45;9.48;;;4.70;;
33926;SDS011;20485;50.992;5.550;2023-05-10T13:07:12;10.60;;;5.25;;
33926;SDS011;20485;50.992;5.550;2023-05-10T13:09:37;10.35;;;4.88;;
33926;SDS011;20485;50.992;5.550;2023-05-10T13:12:03;14.93;;;5.10;;
33926;SDS011;20485;50.992;5.550;2023-05-10T13:14:29;7.70;;;4.43;;
33926;SDS011;20485;50.992;5.550;2023-05-10T13:16:55;6.78;;;3.75;;
33926;SDS011;20485;50.992;5.550;2023-05-10T13:19:20;7.15;;;3.90;;
33926;SDS011;20485;50.992;5.550;2023-05-10T13:21:46;7.43;;;4.15;;
33926;SDS011;20485;50.992;5.550;2023-05-10T13:24:12;9.68;;;4.70;;
33926;SDS011;20485;50.992;5.550;2023-05-10T13:26:42;10.90;;;3.97;;
33926;SDS011;20485;50.992;5.550;2023-05-10T13:29:08;5.15;;;3.38;;
33926;SDS011;20485;50.992;5.550;2023-05-10T13:31:34;10.48;;;4.47;;
33926;SDS011;20485;50.992;5.550;2023-05-10T13:34:00;7.38;;;4.15;;
33926;SDS011;20485;50.992;5.550;2023-05-10T13:36:27;10.02;;;4.50;;
33926;SDS011;20485;50.992;5.550;2023-05-10T13:38:53;6.00;;;3.65;;
33926;SDS011;20485;50.992;5.550;2023-05-10T13:41:18;5.25;;;3.60;;
33926;SDS011;20485;50.992;5.550;2023-05-10T13:43:44;8.90;;;3.83;;
33926;SDS011;20485;50.992;5.550;2023-05-10T13:46:10;13.63;;;3.45;;
33926;SDS011;20485;50.992;5.550;2023-05-10T13:48:35;6.13;;;3.92;;
33926;SDS011;20485;50.992;5.550;2023-05-10T13:51:04;7.18;;;3.72;;
33926;SDS011;20485;50.992;5.550;2023-05-10T13:53:29;9.68;;;3.67;;
33926;SDS011;20485;50.992;5.550;2023-05-10T13:55:55;6.85;;;3.95;;
33926;SDS011;20485;50.992;5.550;2023-05-10T13:58:21;7.47;;;3.17;;
33926;SDS011;20485;50.992;5.550;2023-05-10T14:00:46;8.27;;;3.55;;
33926;SDS011;20485;50.992;5.550;2023-05-10T14:03:12;4.57;;;2.53;;
33926;SDS011;20485;50.992;5.550;2023-05-10T14:05:38;7.97;;;2.72;;
33926;SDS011;20485;50.992;5.550;2023-05-10T14:08:04;5.68;;;2.42;;
33926;SDS011;20485;50.992;5.550;2023-05-10T14:10:29;10.02;;;3.63;;
33926;SDS011;20485;50.992;5.550;2023-05-10T14:12:55;6.78;;;2.55;;
33926;SDS011;20485;50.992;5.550;2023-05-10T14:15:21;4.30;;;2.00;;
33926;SDS011;20485;50.992;5.550;2023-05-10T14:17:46;4.05;;;2.28;;
33926;SDS011;20485;50.992;5.550;2023-05-10T14:23:15;3.83;;;2.75;;
33926;SDS011;20485;50.992;5.550;2023-05-10T14:25:41;6.03;;;2.95;;
33926;SDS011;20485;50.992;5.550;2023-05-10T14:28:07;7.28;;;2.78;;
33926;SDS011;20485;50.992;5.550;2023-05-10T14:30:33;4.60;;;2.42;;
33926;SDS011;20485;50.992;5.550;2023-05-10T14:33:01;5.85;;;2.55;;
33926;SDS011;20485;50.992;5.550;2023-05-10T14:35:27;5.38;;;2.53;;
33926;SDS011;20485;50.992;5.550;2023-05-10T14:37:55;4.22;;;2.67;;
33926;SDS011;20485;50.992;5.550;2023-05-10T14:40:21;2.85;;;2.22;;
33926;SDS011;20485;50.992;5.550;2023-05-10T14:42:47;4.15;;;1.80;;
33926;SDS011;20485;50.992;5.550;2023-05-10T14:45:13;6.85;;;1.77;;
33926;SDS011;20485;50.992;5.550;2023-05-10T14:47:39;3.47;;;1.50;;
33926;SDS011;20485;50.992;5.550;2023-05-10T14:50:05;5.72;;;1.98;;
33926;SDS011;20485;50.992;5.550;2023-05-10T14:52:30;2.67;;;1.70;;
33926;SDS011;20485;50.992;5.550;2023-05-10T14:54:56;3.80;;;1.50;;
33926;SDS011;20485;50.992;5.550;2023-05-10T14:57:24;5.70;;;1.80;;
33926;SDS011;20485;50.992;5.550;2023-05-10T14:59:49;8.68;;;1.45;;
33926;SDS011;20485;50.992;5.550;2023-05-10T15:02:15;1.60;;;1.40;;
33926;SDS011;20485;50.992;5.550;2023-05-10T15:04:41;4.53;;;1.80;;
33926;SDS011;20485;50.992;5.550;2023-05-10T15:07:06;1.52;;;1.17;;
33926;SDS011;20485;50.992;5.550;2023-05-10T15:09:32;1.77;;;1.20;;
33926;SDS011;20485;50.992;5.550;2023-05-10T15:11:58;4.50;;;1.30;;
33926;SDS011;20485;50.992;5.550;2023-05-10T15:14:23;1.98;;;1.35;;
33926;SDS011;20485;50.992;5.550;2023-05-10T15:16:49;8.30;;;1.33;;
33926;SDS011;20485;50.992;5.550;2023-05-10T15:19:15;1.58;;;1.48;;
33926;SDS011;20485;50.992;5.550;2023-05-10T15:21:40;5.90;;;1.60;;